Time;durP1;ratioP1;P1;durP2;ratioP2;P2;SDS_P1;SDS_P2;PMS_P1;PMS_P2;Temp;Humidity;BMP_temperature;BMP_pressure;BME280_temperature;BME280_humidity;BME280_pressure;Samples;Min_cycle;Max_cycle;Signal;HPM_P1;HPM_P2
2023/06/15 00:01:49;;;;;;;24.77;23.37;;;;;;;;;;5053627;28;20872;-81
2023/06/15 00:04:17;;;;;;;25.77;23.73;;;;;;;;;;5054285;28;20478;-80
2023/06/15 00:06:44;;;;;;;26.00;24.50;;;;;;;;;;5053627;28;20493;-80
2023/06/15 00:09:12;;;;;;;25.50;23.70;;;;;;;;;;5053275;28;20477;-80
2023/06/15 00:11:39;;;;;;;25.90;24.00;;;;;;;;;;5053659;28;20478;-80
2023/06/15 00:14:07;;;;;;;25.40;23.77;;;;;;;;;;5053170;28;20421;-80
2023/06/15 00:16:41;;;;;;;25.00;23.60;;;;;;;;;;5052894;28;20462;-80
2023/06/15 00:19:10;;;;;;;25.40;23.80;;;;;;;;;;5053446;28;20435;-80
2023/06/15 00:21:40;;;;;;;25.40;23.57;;;;;;;;;;5052618;28;20494;-79
2023/06/15 00:24:07;;;;;;;25.70;24.20;;;;;;;;;;5053237;28;20466;-80
2023/06/15 00:26:34;;;;;;;23.80;22.30;;;;;;;;;;5052682;28;20439;-80
2023/06/15 00:29:01;;;;;;;23.70;22.30;;;;;;;;;;5054677;28;20835;-79
2023/06/15 00:31:28;;;;;;;25.13;23.67;;;;;;;;;;5052468;28;20486;-80
2023/06/15 00:33:55;;;;;;;25.00;23.47;;;;;;;;;;5052781;28;20823;-80
2023/06/15 00:36:25;;;;;;;25.63;24.10;;;;;;;;;;5056672;28;20516;-80
2023/06/15 00:38:52;;;;;;;25.03;23.53;;;;;;;;;;5061063;28;20454;-79
2023/06/15 00:41:19;;;;;;;24.27;22.77;;;;;;;;;;5056539;28;20458;-81
2023/06/15 00:43:46;;;;;;;26.40;24.40;;;;;;;;;;5057101;28;20469;-80
2023/06/15 00:46:14;;;;;;;24.93;23.37;;;;;;;;;;5056099;28;20505;-80
2023/06/15 00:48:41;;;;;;;24.30;22.80;;;;;;;;;;5058113;28;20457;-81
2023/06/15 00:51:09;;;;;;;25.40;23.80;;;;;;;;;;5056471;28;20463;-81
2023/06/15 00:53:37;;;;;;;24.53;23.07;;;;;;;;;;5056514;28;20439;-80
2023/06/15 00:56:06;;;;;;;25.83;24.23;;;;;;;;;;5056108;28;20496;-80
2023/06/15 00:58:34;;;;;;;24.80;23.37;;;;;;;;;;5058610;28;20469;-80
2023/06/15 01:01:01;;;;;;;24.63;22.93;;;;;;;;;;5070907;28;20496;-79
2023/06/15 01:03:30;;;;;;;24.80;23.20;;;;;;;;;;5071310;28;20448;-81
2023/06/15 01:05:58;;;;;;;25.40;23.80;;;;;;;;;;5071882;28;20478;-79
2023/06/15 01:08:27;;;;;;;24.80;23.30;;;;;;;;;;5072890;28;20470;-81
2023/06/15 01:10:57;;;;;;;24.90;23.40;;;;;;;;;;5071139;28;20496;-81
2023/06/15 01:13:24;;;;;;;24.27;22.83;;;;;;;;;;5058125;28;20427;-80
2023/06/15 01:15:54;;;;;;;25.20;23.80;;;;;;;;;;5055528;28;20862;-81
2023/06/15 01:18:22;;;;;;;25.33;23.77;;;;;;;;;;5056121;28;20827;-82
2023/06/15 01:20:53;;;;;;;24.27;22.77;;;;;;;;;;5055704;28;20515;-81
2023/06/15 01:23:25;;;;;;;25.87;24.13;;;;;;;;;;5055362;28;21456;-81
2023/06/15 01:26:00;;;;;;;25.70;24.20;;;;;;;;;;5055419;28;20838;-82
2023/06/15 01:28:29;;;;;;;25.20;23.40;;;;;;;;;;5057290;28;20477;-81
2023/06/15 01:30:57;;;;;;;25.20;23.70;;;;;;;;;;5055342;28;20535;-81
2023/06/15 01:33:24;;;;;;;23.93;22.63;;;;;;;;;;5055068;28;20965;-80
2023/06/15 01:35:51;;;;;;;25.40;24.00;;;;;;;;;;5055194;28;20477;-82
2023/06/15 01:38:20;;;;;;;25.53;24.10;;;;;;;;;;5055813;28;20457;-81
2023/06/15 01:40:49;;;;;;;25.67;23.97;;;;;;;;;;5055884;28;20485;-81
2023/06/15 01:43:19;;;;;;;26.47;24.87;;;;;;;;;;5056045;28;20843;-79
2023/06/15 01:45:47;;;;;;;25.10;23.60;;;;;;;;;;5054171;28;20489;-80
2023/06/15 01:48:14;;;;;;;25.30;23.80;;;;;;;;;;5055326;28;20450;-81
2023/06/15 01:50:42;;;;;;;25.17;23.53;;;;;;;;;;5055334;28;20992;-82
2023/06/15 01:53:09;;;;;;;25.17;23.60;;;;;;;;;;5055669;28;20450;-81
2023/06/15 01:55:36;;;;;;;25.47;24.07;;;;;;;;;;5056148;28;21034;-81
2023/06/15 01:58:03;;;;;;;26.20;24.50;;;;;;;;;;5055736;28;20428;-81
2023/06/15 02:00:31;;;;;;;24.40;23.00;;;;;;;;;;5055790;28;20472;-80
2023/06/15 02:02:59;;;;;;;25.23;23.77;;;;;;;;;;5055679;28;20453;-81
2023/06/15 02:05:26;;;;;;;24.33;22.83;;;;;;;;;;5055090;28;21071;-80
2023/06/15 02:07:53;;;;;;;25.37;23.93;;;;;;;;;;5055348;28;20482;-80
2023/06/15 02:10:22;;;;;;;25.40;23.53;;;;;;;;;;5077538;28;20457;-80
2023/06/15 02:12:49;;;;;;;25.60;24.10;;;;;;;;;;5078741;28;20453;-80
2023/06/15 02:15:16;;;;;;;25.40;23.80;;;;;;;;;;5073572;28;20455;-81
2023/06/15 02:17:44;;;;;;;25.33;23.70;;;;;;;;;;5056720;28;20488;-82
2023/06/15 02:20:13;;;;;;;24.23;22.63;;;;;;;;;;5056170;28;20485;-81
2023/06/15 02:22:40;;;;;;;24.97;23.53;;;;;;;;;;5056883;28;20449;-82
2023/06/15 02:25:07;;;;;;;26.07;24.47;;;;;;;;;;5056815;28;20481;-82
2023/06/15 02:27:34;;;;;;;25.33;23.83;;;;;;;;;;5056616;28;20457;-83
2023/06/15 02:30:01;;;;;;;26.10;24.60;;;;;;;;;;5057853;28;20464;-81
2023/06/15 02:32:34;;;;;;;26.40;24.80;;;;;;;;;;5057494;28;20963;-82
2023/06/15 02:35:02;;;;;;;25.70;24.13;;;;;;;;;;5056734;28;20809;-81
2023/06/15 02:37:29;;;;;;;25.47;23.97;;;;;;;;;;5056334;28;20559;-82
2023/06/15 02:39:56;;;;;;;25.83;24.30;;;;;;;;;;5055865;28;20547;-82
2023/06/15 02:42:23;;;;;;;25.90;24.40;;;;;;;;;;5056419;28;20434;-82
2023/06/15 02:44:50;;;;;;;24.93;23.53;;;;;;;;;;5056612;28;20520;-82
2023/06/15 02:47:17;;;;;;;26.07;24.40;;;;;;;;;;5056320;28;20452;-81
2023/06/15 02:49:44;;;;;;;25.80;24.40;;;;;;;;;;5055629;28;20472;-81
2023/06/15 02:52:13;;;;;;;27.13;25.40;;;;;;;;;;5055519;28;20503;-80
2023/06/15 02:54:40;;;;;;;26.13;24.53;;;;;;;;;;5055226;28;20448;-80
2023/06/15 02:57:07;;;;;;;26.50;24.90;;;;;;;;;;5054208;28;20444;-81
2023/06/15 02:59:34;;;;;;;26.60;24.97;;;;;;;;;;5053988;28;20841;-81
2023/06/15 03:02:02;;;;;;;26.90;25.07;;;;;;;;;;5054739;28;20459;-79
2023/06/15 03:04:29;;;;;;;27.50;25.80;;;;;;;;;;5054783;28;20436;-81
2023/06/15 03:06:57;;;;;;;27.10;25.50;;;;;;;;;;5053867;28;20538;-81
2023/06/15 03:09:28;;;;;;;26.50;24.80;;;;;;;;;;5067887;28;20453;-81
2023/06/15 03:11:56;;;;;;;25.67;23.97;;;;;;;;;;5067559;28;20542;-81
2023/06/15 03:14:23;;;;;;;26.17;24.43;;;;;;;;;;5059484;28;20465;-81
2023/06/15 03:16:51;;;;;;;26.30;24.60;;;;;;;;;;5064928;28;20448;-81
2023/06/15 03:19:18;;;;;;;27.77;25.70;;;;;;;;;;5055760;28;20444;-80
2023/06/15 03:21:47;;;;;;;26.63;24.73;;;;;;;;;;5053768;28;20477;-81
2023/06/15 03:24:16;;;;;;;26.67;24.77;;;;;;;;;;5054504;28;20968;-80
2023/06/15 03:26:44;;;;;;;27.00;25.30;;;;;;;;;;5053849;28;20488;-81
2023/06/15 03:29:13;;;;;;;25.87;24.23;;;;;;;;;;5054627;28;20453;-80
2023/06/15 03:31:41;;;;;;;29.10;27.10;;;;;;;;;;5053756;28;20810;-81
2023/06/15 03:34:08;;;;;;;27.77;25.63;;;;;;;;;;5054259;28;20516;-81
2023/06/15 03:36:35;;;;;;;27.77;26.07;;;;;;;;;;5053645;28;20444;-81
2023/06/15 03:39:02;;;;;;;31.97;29.20;;;;;;;;;;5054978;28;20473;-81
2023/06/15 03:41:30;;;;;;;29.40;27.23;;;;;;;;;;5053692;28;20480;-81
2023/06/15 03:43:58;;;;;;;29.60;26.83;;;;;;;;;;5053943;28;20472;-80
2023/06/15 03:46:25;;;;;;;28.80;26.80;;;;;;;;;;5053623;28;20480;-81
2023/06/15 03:48:52;;;;;;;28.30;26.00;;;;;;;;;;5053790;28;20427;-80
2023/06/15 03:51:19;;;;;;;27.63;25.83;;;;;;;;;;5053765;28;20987;-81
2023/06/15 03:53:46;;;;;;;28.80;26.70;;;;;;;;;;5053661;28;20531;-80
2023/06/15 03:56:13;;;;;;;28.50;26.50;;;;;;;;;;5054075;28;20427;-81
2023/06/15 03:58:40;;;;;;;29.80;27.60;;;;;;;;;;5054285;28;20514;-80
2023/06/15 04:01:12;;;;;;;29.13;27.10;;;;;;;;;;5053652;28;20530;-80
2023/06/15 04:03:39;;;;;;;30.53;28.27;;;;;;;;;;5053487;28;20453;-80
2023/06/15 04:06:07;;;;;;;30.77;28.33;;;;;;;;;;5053121;28;20859;-80
2023/06/15 04:08:35;;;;;;;29.67;27.57;;;;;;;;;;5054092;28;20457;-80
2023/06/15 04:11:02;;;;;;;30.20;27.97;;;;;;;;;;5056123;28;20493;-79
2023/06/15 04:13:29;;;;;;;29.57;27.63;;;;;;;;;;5057931;28;20465;-83
2023/06/15 04:15:56;;;;;;;31.50;29.27;;;;;;;;;;5056917;28;20463;-78
2023/06/15 04:18:24;;;;;;;32.13;29.40;;;;;;;;;;5057587;28;20496;-81
2023/06/15 04:20:51;;;;;;;30.40;28.10;;;;;;;;;;5056323;28;20475;-80
2023/06/15 04:23:18;;;;;;;29.20;27.10;;;;;;;;;;5057471;28;20787;-80
2023/06/15 04:25:45;;;;;;;27.80;26.07;;;;;;;;;;5056784;28;20568;-87
2023/06/15 04:28:12;;;;;;;27.33;25.63;;;;;;;;;;5059587;28;20919;-86
2023/06/15 04:30:45;;;;;;;28.77;26.77;;;;;;;;;;5074633;28;20507;-84
2023/06/15 04:33:16;;;;;;;27.63;25.83;;;;;;;;;;5079387;28;20424;-85
2023/06/15 04:35:45;;;;;;;28.87;26.77;;;;;;;;;;5078053;28;20797;-81
2023/06/15 04:38:13;;;;;;;28.10;26.40;;;;;;;;;;5074686;28;20451;-77
2023/06/15 04:40:41;;;;;;;27.60;26.00;;;;;;;;;;5075367;28;20537;-77
2023/06/15 04:43:08;;;;;;;28.60;26.30;;;;;;;;;;5076747;28;20860;-80
2023/06/15 04:45:35;;;;;;;28.00;26.03;;;;;;;;;;5077227;28;20487;-81
2023/06/15 04:48:02;;;;;;;27.30;25.70;;;;;;;;;;5079152;28;20456;-80
2023/06/15 04:50:29;;;;;;;27.67;25.90;;;;;;;;;;5081879;28;20554;-81
2023/06/15 04:52:58;;;;;;;27.10;25.30;;;;;;;;;;5078708;28;20487;-81
2023/06/15 04:55:25;;;;;;;27.90;26.00;;;;;;;;;;5077744;28;20477;-81
2023/06/15 04:57:52;;;;;;;29.03;26.90;;;;;;;;;;5077844;28;20509;-81
2023/06/15 05:00:20;;;;;;;27.47;25.80;;;;;;;;;;5078030;28;20476;-78
2023/06/15 05:02:47;;;;;;;27.23;25.43;;;;;;;;;;5073187;28;20594;-77
2023/06/15 05:05:14;;;;;;;26.40;24.70;;;;;;;;;;5075624;28;20901;-78
2023/06/15 05:07:41;;;;;;;28.17;26.10;;;;;;;;;;5076222;28;20476;-80
2023/06/15 05:10:10;;;;;;;27.53;25.83;;;;;;;;;;5077464;28;20462;-80
2023/06/15 05:12:37;;;;;;;27.73;26.03;;;;;;;;;;5078206;28;20460;-82
2023/06/15 05:15:04;;;;;;;26.67;24.83;;;;;;;;;;5077610;28;20559;-82
2023/06/15 05:17:31;;;;;;;26.80;25.10;;;;;;;;;;5075739;28;20503;-78
2023/06/15 05:19:58;;;;;;;28.20;25.83;;;;;;;;;;5078085;28;21038;-83
2023/06/15 05:22:25;;;;;;;27.27;25.57;;;;;;;;;;5077877;28;20454;-81
2023/06/15 05:24:52;;;;;;;27.10;25.40;;;;;;;;;;5077812;28;20502;-84
2023/06/15 05:27:20;;;;;;;27.33;25.30;;;;;;;;;;5078882;28;20459;-81
2023/06/15 05:29:48;;;;;;;26.93;25.27;;;;;;;;;;5078238;28;20463;-78
2023/06/15 05:32:15;;;;;;;27.20;25.47;;;;;;;;;;5076486;28;20476;-77
2023/06/15 05:34:42;;;;;;;26.80;25.03;;;;;;;;;;5076634;28;20460;-77
2023/06/15 05:37:09;;;;;;;26.67;25.07;;;;;;;;;;5075691;28;20467;-77
2023/06/15 05:39:36;;;;;;;26.03;24.13;;;;;;;;;;5075591;28;20521;-77
2023/06/15 05:42:04;;;;;;;25.40;23.90;;;;;;;;;;5078638;28;20867;-77
2023/06/15 05:44:32;;;;;;;26.40;24.60;;;;;;;;;;5075782;28;20448;-76
2023/06/15 05:46:59;;;;;;;25.57;23.83;;;;;;;;;;5073486;28;20485;-77
2023/06/15 05:49:26;;;;;;;25.17;23.67;;;;;;;;;;5075409;28;20428;-76
2023/06/15 05:51:53;;;;;;;25.20;23.60;;;;;;;;;;5074731;28;20523;-78
2023/06/15 05:54:21;;;;;;;25.87;24.17;;;;;;;;;;5075584;28;20895;-77
2023/06/15 05:56:48;;;;;;;25.60;23.57;;;;;;;;;;5074740;28;20475;-77
2023/06/15 05:59:15;;;;;;;24.63;23.03;;;;;;;;;;5075269;28;20434;-77
2023/06/15 06:01:44;;;;;;;24.67;23.27;;;;;;;;;;5074084;28;20525;-78
2023/06/15 06:04:11;;;;;;;25.80;24.10;;;;;;;;;;5075861;28;20488;-76
2023/06/15 06:06:38;;;;;;;25.77;24.10;;;;;;;;;;5074642;28;20485;-77
2023/06/15 06:09:05;;;;;;;26.17;24.57;;;;;;;;;;5075284;28;20476;-77
2023/06/15 06:11:32;;;;;;;26.30;24.40;;;;;;;;;;5075223;28;20527;-77
2023/06/15 06:13:59;;;;;;;25.33;23.70;;;;;;;;;;5073801;28;20473;-77
2023/06/15 06:16:26;;;;;;;24.40;22.90;;;;;;;;;;5074831;28;20524;-79
2023/06/15 06:18:55;;;;;;;24.90;23.00;;;;;;;;;;5076210;28;20503;-77
2023/06/15 06:21:22;;;;;;;25.90;24.10;;;;;;;;;;5074634;28;20481;-77
2023/06/15 06:23:49;;;;;;;26.03;24.43;;;;;;;;;;5075274;28;20474;-77
2023/06/15 06:26:16;;;;;;;25.57;23.87;;;;;;;;;;5075104;28;20482;-78
2023/06/15 06:28:44;;;;;;;25.40;23.90;;;;;;;;;;5076935;28;20462;-78
2023/06/15 06:31:11;;;;;;;25.87;24.10;;;;;;;;;;5076055;28;20615;-77
2023/06/15 06:33:38;;;;;;;25.00;23.60;;;;;;;;;;5073894;28;20446;-77
2023/06/15 06:36:08;;;;;;;24.57;23.07;;;;;;;;;;5074357;28;20450;-78
2023/06/15 06:38:35;;;;;;;25.70;24.20;;;;;;;;;;5074947;28;20453;-77
2023/06/15 06:41:02;;;;;;;25.20;23.70;;;;;;;;;;5074533;28;20494;-78
2023/06/15 06:43:29;;;;;;;25.77;24.13;;;;;;;;;;5076090;28;20434;-78
2023/06/15 06:45:56;;;;;;;25.57;23.97;;;;;;;;;;5074549;28;20444;-78
2023/06/15 06:48:23;;;;;;;25.07;23.47;;;;;;;;;;5074434;28;20809;-79
2023/06/15 06:50:50;;;;;;;25.37;23.70;;;;;;;;;;5073816;28;20444;-78
2023/06/15 06:53:18;;;;;;;25.47;23.67;;;;;;;;;;5075043;28;20507;-78
2023/06/15 06:55:47;;;;;;;26.03;24.33;;;;;;;;;;5074067;28;20875;-80
2023/06/15 06:58:14;;;;;;;25.50;23.50;;;;;;;;;;5077342;28;20459;-80
2023/06/15 07:00:42;;;;;;;26.00;24.47;;;;;;;;;;5093702;28;20445;-79
2023/06/15 07:03:09;;;;;;;25.50;23.90;;;;;;;;;;5093231;28;20523;-78
2023/06/15 07:05:36;;;;;;;26.03;24.33;;;;;;;;;;5088741;28;20458;-84
2023/06/15 07:08:03;;;;;;;26.40;24.60;;;;;;;;;;5077553;28;20493;-80
2023/06/15 07:10:31;;;;;;;25.50;23.60;;;;;;;;;;5078332;28;20469;-84
2023/06/15 07:12:58;;;;;;;26.13;24.23;;;;;;;;;;5075959;28;20441;-82
2023/06/15 07:15:27;;;;;;;26.40;24.57;;;;;;;;;;5074621;28;20501;-80
2023/06/15 07:17:55;;;;;;;25.67;24.17;;;;;;;;;;5075626;28;20420;-84
2023/06/15 07:20:22;;;;;;;25.53;23.57;;;;;;;;;;5075379;28;20512;-86
2023/06/15 07:22:49;;;;;;;24.90;23.30;;;;;;;;;;5075510;28;20447;-81
2023/06/15 07:25:15;;;;;;;25.00;23.40;;;;;;;;;;5074998;28;20448;-81
2023/06/15 07:27:44;;;;;;;25.23;23.63;;;;;;;;;;5074484;28;20474;-81
2023/06/15 07:30:12;;;;;;;26.47;24.73;;;;;;;;;;5074833;28;20466;-81
2023/06/15 07:32:39;;;;;;;24.97;23.17;;;;;;;;;;5075556;28;20442;-81
2023/06/15 07:35:06;;;;;;;24.30;22.67;;;;;;;;;;5075232;28;20470;-81
2023/06/15 07:37:33;;;;;;;24.40;23.00;;;;;;;;;;5075002;28;20502;-81
2023/06/15 07:40:00;;;;;;;25.33;23.30;;;;;;;;;;5076473;28;20483;-82
2023/06/15 07:42:27;;;;;;;24.77;23.37;;;;;;;;;;5078527;28;20454;-84
2023/06/15 07:44:55;;;;;;;24.53;22.60;;;;;;;;;;5080780;28;20436;-84
2023/06/15 07:47:22;;;;;;;23.57;22.13;;;;;;;;;;5079564;28;20518;-78
2023/06/15 07:49:49;;;;;;;24.30;22.60;;;;;;;;;;5078201;28;20444;-78
2023/06/15 07:52:16;;;;;;;24.80;23.10;;;;;;;;;;5081467;28;20432;-80
2023/06/15 07:54:43;;;;;;;23.73;22.33;;;;;;;;;;5078533;28;20445;-78
2023/06/15 07:57:10;;;;;;;23.97;22.57;;;;;;;;;;5077812;28;20474;-78
2023/06/15 07:59:37;;;;;;;25.00;23.40;;;;;;;;;;5077389;28;20832;-78
2023/06/15 08:02:06;;;;;;;25.33;23.70;;;;;;;;;;5078032;28;20489;-77
2023/06/15 08:04:33;;;;;;;25.00;23.17;;;;;;;;;;5077977;28;20844;-79
2023/06/15 08:07:00;;;;;;;25.20;23.63;;;;;;;;;;5077682;28;20547;-79
2023/06/15 08:09:27;;;;;;;24.70;23.10;;;;;;;;;;5077813;28;20424;-78
2023/06/15 08:11:54;;;;;;;25.57;23.63;;;;;;;;;;5077218;28;20973;-79
2023/06/15 08:14:21;;;;;;;25.47;23.53;;;;;;;;;;5078240;28;20445;-79
2023/06/15 08:16:49;;;;;;;24.77;23.23;;;;;;;;;;5076957;28;20442;-78
2023/06/15 08:19:17;;;;;;;25.37;23.77;;;;;;;;;;5078099;28;20424;-78
2023/06/15 08:21:44;;;;;;;24.50;23.03;;;;;;;;;;5076905;28;20485;-77
2023/06/15 08:24:11;;;;;;;25.30;23.80;;;;;;;;;;5077928;28;20454;-77
2023/06/15 08:26:38;;;;;;;25.40;23.70;;;;;;;;;;5077009;28;20431;-77
2023/06/15 08:29:07;;;;;;;24.60;22.90;;;;;;;;;;5077839;28;20849;-78
2023/06/15 08:31:35;;;;;;;24.40;23.00;;;;;;;;;;5077142;28;20456;-78
2023/06/15 08:34:02;;;;;;;24.20;22.80;;;;;;;;;;5077643;28;20470;-78
2023/06/15 08:36:30;;;;;;;24.10;22.60;;;;;;;;;;5077185;28;20425;-78
2023/06/15 08:38:57;;;;;;;25.13;23.50;;;;;;;;;;5077711;28;20452;-78
2023/06/15 08:41:27;;;;;;;25.97;23.57;;;;;;;;;;5076511;28;20496;-78
2023/06/15 08:43:54;;;;;;;25.40;23.80;;;;;;;;;;5077757;28;20552;-76
2023/06/15 08:46:21;;;;;;;25.23;23.73;;;;;;;;;;5074911;28;20858;-77
2023/06/15 08:48:52;;;;;;;25.10;23.50;;;;;;;;;;5076093;28;20543;-83
2023/06/15 08:51:19;;;;;;;25.20;23.43;;;;;;;;;;5076738;28;20489;-78
2023/06/15 08:53:48;;;;;;;24.47;22.97;;;;;;;;;;5077172;28;20592;-83
2023/06/15 08:56:15;;;;;;;24.90;23.40;;;;;;;;;;5076294;28;20412;-84
2023/06/15 08:58:49;;;;;;;24.50;22.70;;;;;;;;;;5077347;28;20453;-82
2023/06/15 09:01:18;;;;;;;24.83;22.97;;;;;;;;;;5077314;28;20460;-82
2023/06/15 09:03:45;;;;;;;23.73;22.33;;;;;;;;;;5078298;28;20447;-77
2023/06/15 09:06:12;;;;;;;23.80;22.30;;;;;;;;;;5078047;28;20457;-84
2023/06/15 09:08:40;;;;;;;23.80;22.50;;;;;;;;;;5079220;28;20463;-83
2023/06/15 09:11:09;;;;;;;23.57;22.17;;;;;;;;;;5077189;28;20531;-77
2023/06/15 09:13:36;;;;;;;24.00;22.60;;;;;;;;;;5077651;28;20897;-83
2023/06/15 09:16:05;;;;;;;24.33;22.93;;;;;;;;;;5076681;28;20439;-83
2023/06/15 09:18:43;;;;;;;23.63;22.33;;;;;;;;;;5077890;28;20865;-83
2023/06/15 09:21:12;;;;;;;24.40;23.00;;;;;;;;;;5077234;28;20515;-82
2023/06/15 09:23:41;;;;;;;25.50;23.87;;;;;;;;;;5077225;28;20470;-85
2023/06/15 09:26:09;;;;;;;23.97;22.47;;;;;;;;;;5077673;28;20503;-82
2023/06/15 09:28:44;;;;;;;23.83;22.37;;;;;;;;;;5077945;28;20515;-78
2023/06/15 09:31:11;;;;;;;24.33;22.47;;;;;;;;;;5078082;28;20436;-81
2023/06/15 09:33:39;;;;;;;23.47;22.07;;;;;;;;;;5075691;28;20464;-76
2023/06/15 09:36:07;;;;;;;24.57;22.97;;;;;;;;;;5079673;28;20427;-78
2023/06/15 09:38:36;;;;;;;23.70;22.27;;;;;;;;;;5076833;28;20521;-76
2023/06/15 09:41:04;;;;;;;24.03;22.43;;;;;;;;;;5075213;28;20816;-77
2023/06/15 09:43:33;;;;;;;24.60;23.20;;;;;;;;;;5075595;28;20428;-77
2023/06/15 09:46:01;;;;;;;24.20;22.77;;;;;;;;;;5075166;28;20930;-77
2023/06/15 09:48:30;;;;;;;24.53;23.13;;;;;;;;;;5075385;28;20982;-76
2023/06/15 09:51:01;;;;;;;24.57;23.17;;;;;;;;;;5074442;28;20466;-77
2023/06/15 09:53:30;;;;;;;24.10;22.60;;;;;;;;;;5075076;28;20905;-77
2023/06/15 09:55:57;;;;;;;25.27;23.40;;;;;;;;;;5075752;28;20432;-78
2023/06/15 09:58:24;;;;;;;23.70;22.23;;;;;;;;;;5075659;28;20558;-78
2023/06/15 10:00:57;;;;;;;23.30;21.87;;;;;;;;;;5075914;28;20463;-79
2023/06/15 10:03:24;;;;;;;24.87;23.23;;;;;;;;;;5075609;28;21062;-76
2023/06/15 10:05:59;;;;;;;24.63;22.83;;;;;;;;;;5074557;28;20996;-76
2023/06/15 10:08:27;;;;;;;26.37;24.67;;;;;;;;;;5075749;28;20469;-78
2023/06/15 10:10:56;;;;;;;25.77;24.27;;;;;;;;;;5078487;28;20813;-77
2023/06/15 10:13:26;;;;;;;25.17;23.67;;;;;;;;;;5075807;28;20462;-80
2023/06/15 10:15:58;;;;;;;24.30;22.80;;;;;;;;;;5076129;28;20984;-80
2023/06/15 10:18:26;;;;;;;24.50;22.80;;;;;;;;;;5076043;28;20428;-80
2023/06/15 10:20:54;;;;;;;24.30;22.70;;;;;;;;;;5077172;28;20492;-79
2023/06/15 10:23:24;;;;;;;25.07;23.37;;;;;;;;;;5076777;28;20934;-79
2023/06/15 10:25:55;;;;;;;24.43;22.93;;;;;;;;;;5076345;28;20413;-79
2023/06/15 10:28:23;;;;;;;24.77;22.90;;;;;;;;;;5076486;28;20444;-79
2023/06/15 10:30:52;;;;;;;25.23;23.63;;;;;;;;;;5075740;28;20456;-78
2023/06/15 10:33:22;;;;;;;25.10;23.50;;;;;;;;;;5076305;28;20449;-80
2023/06/15 10:35:52;;;;;;;25.60;23.77;;;;;;;;;;5073645;28;21041;-78
2023/06/15 10:38:30;;;;;;;25.93;24.23;;;;;;;;;;5077902;28;20498;-81
2023/06/15 10:40:58;;;;;;;26.27;24.57;;;;;;;;;;5076498;28;20448;-80
2023/06/15 10:43:27;;;;;;;26.90;24.87;;;;;;;;;;5075355;28;20456;-81
2023/06/15 10:45:54;;;;;;;26.80;25.17;;;;;;;;;;5074278;28;20522;-76
2023/06/15 10:48:23;;;;;;;25.77;24.17;;;;;;;;;;5073348;28;20452;-77
2023/06/15 10:50:51;;;;;;;25.87;24.37;;;;;;;;;;5075434;28;20949;-77
2023/06/15 10:53:21;;;;;;;25.10;23.70;;;;;;;;;;5075508;28;20453;-76
2023/06/15 10:55:49;;;;;;;25.13;23.63;;;;;;;;;;5074241;28;20448;-77
2023/06/15 10:58:17;;;;;;;24.70;23.20;;;;;;;;;;5075662;28;20915;-76
2023/06/15 11:00:44;;;;;;;24.87;23.33;;;;;;;;;;5073831;28;20453;-76
2023/06/15 11:03:28;;;;;;;25.77;23.87;;;;;;;;;;5073403;28;21045;-77
2023/06/15 11:06:05;;;;;;;26.00;24.50;;;;;;;;;;5074486;28;20432;-76
2023/06/15 11:08:33;;;;;;;24.90;23.40;;;;;;;;;;5075178;28;20516;-77
2023/06/15 11:11:00;;;;;;;25.87;24.10;;;;;;;;;;5074612;28;20536;-77
2023/06/15 11:13:28;;;;;;;25.63;24.13;;;;;;;;;;5074094;28;20916;-75
2023/06/15 11:16:08;;;;;;;26.50;25.00;;;;;;;;;;5074451;28;20519;-76
2023/06/15 11:18:37;;;;;;;27.70;25.83;;;;;;;;;;5074265;28;20416;-78
2023/06/15 11:21:04;;;;;;;25.80;24.10;;;;;;;;;;5074241;28;20539;-78
2023/06/15 11:23:33;;;;;;;25.23;23.53;;;;;;;;;;5075746;28;20450;-83
2023/06/15 11:26:01;;;;;;;24.97;23.47;;;;;;;;;;5076946;28;20440;-82
2023/06/15 11:28:31;;;;;;;25.10;23.70;;;;;;;;;;5061615;28;20490;-82
2023/06/15 11:30:59;;;;;;;25.77;24.20;;;;;;;;;;5057816;28;20452;-80
2023/06/15 11:33:27;;;;;;;25.60;24.17;;;;;;;;;;5057978;28;20442;-76
2023/06/15 11:35:56;;;;;;;24.03;22.63;;;;;;;;;;5064276;28;20454;-76
2023/06/15 11:38:25;;;;;;;25.93;24.20;;;;;;;;;;5086214;28;20439;-76
2023/06/15 11:40:52;;;;;;;24.93;23.13;;;;;;;;;;5071008;28;21053;-78
2023/06/15 11:43:21;;;;;;;24.70;23.00;;;;;;;;;;5078594;28;20441;-78
2023/06/15 11:45:48;;;;;;;24.20;22.80;;;;;;;;;;5085396;28;20421;-77
2023/06/15 11:48:15;;;;;;;24.17;22.67;;;;;;;;;;5094473;28;20490;-77
2023/06/15 11:50:43;;;;;;;25.43;23.83;;;;;;;;;;5094277;28;20420;-77
2023/06/15 11:53:16;;;;;;;24.67;22.80;;;;;;;;;;5089005;28;20462;-76
2023/06/15 11:55:43;;;;;;;25.27;23.57;;;;;;;;;;5091601;28;20437;-79
2023/06/15 11:58:10;;;;;;;26.23;24.10;;;;;;;;;;5086100;28;20438;-79
2023/06/15 12:00:37;;;;;;;25.50;23.77;;;;;;;;;;5086925;28;20444;-80
2023/06/15 12:03:08;;;;;;;25.63;23.60;;;;;;;;;;5090172;28;20492;-76
2023/06/15 12:05:35;;;;;;;24.10;22.60;;;;;;;;;;5095518;28;20427;-77
2023/06/15 12:08:03;;;;;;;25.00;23.40;;;;;;;;;;5095327;28;20451;-77
2023/06/15 12:10:32;;;;;;;25.13;23.53;;;;;;;;;;5094830;28;20483;-78
2023/06/15 12:12:59;;;;;;;25.17;23.67;;;;;;;;;;5095658;28;20400;-78
2023/06/15 12:15:27;;;;;;;25.73;24.03;;;;;;;;;;5096307;28;20420;-77
2023/06/15 12:17:55;;;;;;;24.30;22.90;;;;;;;;;;5096691;28;20446;-76
2023/06/15 12:20:22;;;;;;;25.30;23.50;;;;;;;;;;5089177;28;20427;-77
2023/06/15 12:22:49;;;;;;;25.07;23.57;;;;;;;;;;5086447;28;20461;-77
2023/06/15 12:25:17;;;;;;;24.77;23.27;;;;;;;;;;5082602;28;20428;-77
2023/06/15 12:27:46;;;;;;;25.40;23.80;;;;;;;;;;5083872;28;20449;-77
2023/06/15 12:30:15;;;;;;;24.80;23.10;;;;;;;;;;5083385;28;20444;-77
2023/06/15 12:32:45;;;;;;;24.97;23.30;;;;;;;;;;5080778;28;20439;-79
2023/06/15 12:35:28;;;;;;;24.93;23.03;;;;;;;;;;5078182;28;20443;-77
2023/06/15 12:37:55;;;;;;;24.20;22.73;;;;;;;;;;5076926;28;20950;-77
2023/06/15 12:40:22;;;;;;;24.00;22.43;;;;;;;;;;5076952;28;20456;-77
2023/06/15 12:42:58;;;;;;;23.93;22.43;;;;;;;;;;5076971;28;20446;-77
2023/06/15 12:45:25;;;;;;;24.90;23.00;;;;;;;;;;5077034;28;20424;-77
2023/06/15 12:47:53;;;;;;;24.40;22.90;;;;;;;;;;5076707;28;20478;-77
2023/06/15 12:50:20;;;;;;;24.40;22.90;;;;;;;;;;5075826;28;20460;-77
2023/06/15 12:52:47;;;;;;;24.53;22.97;;;;;;;;;;5076386;28;20423;-77
2023/06/15 12:55:15;;;;;;;25.27;23.57;;;;;;;;;;5076140;28;20464;-76
2023/06/15 12:57:42;;;;;;;25.13;23.60;;;;;;;;;;5075582;28;20464;-76
2023/06/15 13:00:12;;;;;;;25.50;23.80;;;;;;;;;;5076019;28;20498;-77
2023/06/15 13:02:40;;;;;;;24.27;22.77;;;;;;;;;;5076025;28;20446;-77
2023/06/15 13:05:07;;;;;;;25.03;23.43;;;;;;;;;;5076185;28;20421;-77
2023/06/15 13:07:34;;;;;;;24.90;23.10;;;;;;;;;;5076101;28;20420;-84
2023/06/15 13:10:02;;;;;;;24.70;22.70;;;;;;;;;;5078983;28;21007;-86
2023/06/15 13:12:29;;;;;;;24.43;22.83;;;;;;;;;;5077209;28;20907;-80
2023/06/15 13:14:57;;;;;;;24.87;23.27;;;;;;;;;;5076989;28;20460;-82
2023/06/15 13:17:25;;;;;;;24.37;22.67;;;;;;;;;;5077597;28;20435;-80
2023/06/15 13:19:52;;;;;;;24.27;22.67;;;;;;;;;;5078134;28;20869;-81
2023/06/15 13:22:19;;;;;;;24.67;23.10;;;;;;;;;;5081278;28;20428;-83
2023/06/15 13:24:46;;;;;;;24.33;22.83;;;;;;;;;;5081175;28;20453;-81
2023/06/15 13:27:13;;;;;;;24.77;23.07;;;;;;;;;;5081919;28;20454;-81
2023/06/15 13:29:40;;;;;;;24.33;22.83;;;;;;;;;;5081707;28;21002;-89
2023/06/15 13:32:08;;;;;;;24.13;22.63;;;;;;;;;;5082493;28;20448;-81
2023/06/15 13:34:37;;;;;;;23.93;22.43;;;;;;;;;;5081475;28;20425;-81
2023/06/15 13:37:04;;;;;;;23.97;22.50;;;;;;;;;;5078629;28;20479;-80
2023/06/15 13:39:31;;;;;;;25.20;23.40;;;;;;;;;;5077897;28;20536;-81
2023/06/15 13:41:58;;;;;;;23.40;21.70;;;;;;;;;;5077575;28;20477;-88
2023/06/15 13:44:25;;;;;;;24.30;22.80;;;;;;;;;;5081590;28;20438;-87
2023/06/15 13:46:52;;;;;;;24.40;22.60;;;;;;;;;;5085038;28;20457;-85
2023/06/15 13:49:20;;;;;;;24.93;23.07;;;;;;;;;;5077451;28;20815;-84
2023/06/15 13:51:48;;;;;;;24.73;22.83;;;;;;;;;;5077732;28;20420;-82
2023/06/15 13:54:15;;;;;;;23.90;22.50;;;;;;;;;;5076528;28;20461;-83
2023/06/15 13:56:42;;;;;;;25.00;23.27;;;;;;;;;;5077982;28;20527;-86
2023/06/15 13:59:10;;;;;;;24.10;22.50;;;;;;;;;;5076114;28;20446;-82
2023/06/15 14:01:37;;;;;;;24.57;22.97;;;;;;;;;;5072779;28;20467;-85
2023/06/15 14:04:04;;;;;;;24.30;22.40;;;;;;;;;;5074900;28;20445;-83
2023/06/15 14:06:31;;;;;;;23.90;22.50;;;;;;;;;;5077899;28;20441;-86
2023/06/15 14:09:00;;;;;;;24.10;22.40;;;;;;;;;;5079031;28;20454;-86
2023/06/15 14:11:27;;;;;;;24.83;23.23;;;;;;;;;;5067764;28;20479;-83
2023/06/15 14:13:55;;;;;;;25.07;23.13;;;;;;;;;;5073577;28;20421;-81
2023/06/15 14:16:23;;;;;;;24.43;22.80;;;;;;;;;;5088311;28;20523;-82
2023/06/15 14:18:50;;;;;;;24.63;22.93;;;;;;;;;;5088586;28;20413;-86
2023/06/15 14:21:17;;;;;;;24.50;22.80;;;;;;;;;;5090759;28;20476;-85